Hot Springs, Arkansas
Current Conditions -  °F | °C
As of 10:53 PM on Monday 22 Dec 2014 (Local Time) from KHOT Reporting Station
Clear Clear  
Wind Chill: 53°   Ceiling: Unl
Heat Index: 53°   Visibility: 10mi
Dew Point: 49°   Wind: 5mph
Humidity: 86%   Direction: 300°WNW
Pressure: 29.65"   Gusts: NA
Location:  34.51°N, 93.05°W
Report Text: KHOT 230453Z AUTO 30004KT 10SM CLR 12/09 A2965 RMK AO2 SLP040 T01170094
Loading
Personal Weather Stations






























Interactive Weather Map New forecast layout! Learn more

10-Day Weather Forecast

Advertisements
Track Severe Weather on mobile